THY420 LTFE-LTFM
Flight info
| Callsign | THY420 |
|---|---|
| Flight time | 0h 54m |
| Altitude | 38000 |
| Route | AKBUK1V/28R AKBUK UN618 DUGLA/N0483F370 UZ713 INBET |
| Aircraft | A359/H-SDE2E3GHIJ3J4J5LM1ORWXY/LB1D1 |
Departure
| Time | 2026-04-26 09:56 |
|---|---|
| Airport | Milas Bodrum International Airport (LTFE) |
Arrival
| Time | 2026-04-26 10:50 |
|---|---|
| Airport | İstanbul Airport (LTFM) |
| Time | Latitude | Longitude | Altitude | Speed | Heading |
|---|---|---|---|---|---|
| 2026-04-26 09:38 | 37.24402 | 27.67784 | 31 ft | 0 kts | 196° |
| 2026-04-26 09:46 | 37.24405 | 27.67786 | 30 ft | 3 kts | 195° |
| 2026-04-26 09:47 | 37.24431 | 27.67791 | 31 ft | 4 kts | 175° |
| 2026-04-26 09:47 | 37.24456 | 27.67782 | 31 ft | 4 kts | 145° |
| 2026-04-26 09:47 | 37.24472 | 27.67760 | 31 ft | 2 kts | 107° |
| 2026-04-26 09:47 | 37.24473 | 27.67758 | 31 ft | 0 kts | 107° |
| 2026-04-26 09:48 | 37.24470 | 27.67769 | 31 ft | 8 kts | 107° |
| 2026-04-26 09:49 | 37.24448 | 27.67862 | 31 ft | 13 kts | 107° |
| 2026-04-26 09:49 | 37.24424 | 27.67962 | 32 ft | 0 kts | 106° |
| 2026-04-26 09:49 | 37.24423 | 27.67968 | 32 ft | 0 kts | 106° |
| 2026-04-26 09:49 | 37.24421 | 27.67976 | 32 ft | 0 kts | 105° |
| 2026-04-26 09:50 | 37.24419 | 27.67984 | 32 ft | 0 kts | 105° |
| 2026-04-26 09:50 | 37.24418 | 27.67988 | 32 ft | 0 kts | 105° |
| 2026-04-26 09:50 | 37.24417 | 27.67991 | 32 ft | 0 kts | 105° |
| 2026-04-26 09:51 | 37.24417 | 27.67992 | 32 ft | 0 kts | 105° |
| 2026-04-26 09:51 | 37.24416 | 27.67995 | 32 ft | 0 kts | 105° |
| 2026-04-26 09:52 | 37.24416 | 27.67998 | 32 ft | 0 kts | 105° |
| 2026-04-26 09:52 | 37.24415 | 27.68001 | 32 ft | 0 kts | 105° |
| 2026-04-26 09:52 | 37.24414 | 27.68008 | 32 ft | 3 kts | 105° |
| 2026-04-26 09:53 | 37.24413 | 27.68012 | 32 ft | 0 kts | 105° |
| 2026-04-26 09:53 | 37.24412 | 27.68014 | 32 ft | 0 kts | 105° |
| 2026-04-26 09:53 | 37.24410 | 27.68026 | 32 ft | 0 kts | 105° |
| 2026-04-26 09:53 | 37.24420 | 27.68061 | 32 ft | 8 kts | 48° |
| 2026-04-26 09:54 | 37.24453 | 27.68065 | 32 ft | 6 kts | 0° |
| 2026-04-26 09:54 | 37.24574 | 27.68091 | 31 ft | 13 kts | 14° |
| 2026-04-26 09:54 | 37.24599 | 27.68101 | 31 ft | 0 kts | 17° |
| 2026-04-26 09:54 | 37.24601 | 27.68102 | 31 ft | 4 kts | 18° |
| 2026-04-26 09:55 | 37.24690 | 27.68125 | 31 ft | 11 kts | 354° |
| 2026-04-26 09:55 | 37.24739 | 27.68065 | 32 ft | 12 kts | 292° |
| 2026-04-26 09:55 | 37.24784 | 27.67892 | 32 ft | 48 kts | 287° |
| 2026-04-26 09:55 | 37.24957 | 27.67166 | 29 ft | 123 kts | 287° |
| 2026-04-26 09:56 | 37.25149 | 27.66368 | 60 ft | 161 kts | 287° |
| 2026-04-26 09:56 | 37.25481 | 27.64991 | 758 ft | 163 kts | 287° |
| 2026-04-26 09:56 | 37.25906 | 27.63219 | 1642 ft | 167 kts | 287° |
| 2026-04-26 09:56 | 37.26140 | 27.62232 | 1795 ft | 183 kts | 287° |
| 2026-04-26 09:57 | 37.26666 | 27.60022 | 2124 ft | 217 kts | 287° |
| 2026-04-26 09:57 | 37.26970 | 27.58747 | 2299 ft | 234 kts | 287° |
| 2026-04-26 09:57 | 37.27456 | 27.56701 | 2590 ft | 255 kts | 287° |
| 2026-04-26 09:57 | 37.27972 | 27.54526 | 3181 ft | 263 kts | 287° |
| 2026-04-26 09:58 | 37.28491 | 27.52338 | 3873 ft | 267 kts | 287° |
| 2026-04-26 09:58 | 37.29028 | 27.50076 | 4514 ft | 272 kts | 287° |
| 2026-04-26 09:58 | 37.29673 | 27.47825 | 5166 ft | 276 kts | 298° |
| 2026-04-26 09:58 | 37.30897 | 27.45998 | 5850 ft | 274 kts | 326° |
| 2026-04-26 09:59 | 37.32644 | 27.45103 | 6522 ft | 273 kts | 354° |
| 2026-04-26 09:59 | 37.34538 | 27.45047 | 7187 ft | 274 kts | 4° |
| 2026-04-26 09:59 | 37.36454 | 27.45181 | 7811 ft | 277 kts | 5° |
| 2026-04-26 09:59 | 37.38393 | 27.45326 | 8456 ft | 280 kts | 5° |
| 2026-04-26 10:00 | 37.40356 | 27.45463 | 9049 ft | 284 kts | 5° |
| 2026-04-26 10:00 | 37.42342 | 27.45593 | 9649 ft | 288 kts | 4° |
| 2026-04-26 10:00 | 37.44362 | 27.45719 | 10185 ft | 295 kts | 4° |
| 2026-04-26 10:00 | 37.46468 | 27.45847 | 10453 ft | 311 kts | 4° |
| 2026-04-26 10:01 | 37.48691 | 27.45947 | 10656 ft | 328 kts | 1° |
| 2026-04-26 10:01 | 37.50996 | 27.45496 | 10862 ft | 344 kts | 345° |
| 2026-04-26 10:01 | 37.53274 | 27.44502 | 11119 ft | 357 kts | 339° |
| 2026-04-26 10:01 | 37.55563 | 27.43225 | 11556 ft | 362 kts | 335° |
| 2026-04-26 10:02 | 37.57844 | 27.41833 | 12021 ft | 367 kts | 334° |
| 2026-04-26 10:02 | 37.60216 | 27.40608 | 12540 ft | 369 kts | 344° |
| 2026-04-26 10:02 | 37.62747 | 27.40037 | 13072 ft | 370 kts | 355° |
| 2026-04-26 10:02 | 37.65325 | 27.39807 | 13590 ft | 372 kts | 358° |
| 2026-04-26 10:03 | 37.67919 | 27.39650 | 14072 ft | 374 kts | 358° |
| 2026-04-26 10:03 | 37.70531 | 27.39513 | 14583 ft | 376 kts | 358° |
| 2026-04-26 10:03 | 37.73158 | 27.39382 | 15074 ft | 378 kts | 359° |
| 2026-04-26 10:03 | 37.75801 | 27.39255 | 15570 ft | 381 kts | 359° |
| 2026-04-26 10:04 | 37.78458 | 27.39130 | 16062 ft | 384 kts | 359° |
| 2026-04-26 10:04 | 37.81134 | 27.39004 | 16544 ft | 386 kts | 359° |
| 2026-04-26 10:04 | 37.83827 | 27.38875 | 17012 ft | 388 kts | 359° |
| 2026-04-26 10:04 | 37.86518 | 27.38748 | 17475 ft | 390 kts | 359° |
| 2026-04-26 10:05 | 37.89208 | 27.38621 | 17917 ft | 393 kts | 359° |
| 2026-04-26 10:05 | 37.91984 | 27.38491 | 18371 ft | 395 kts | 359° |
| 2026-04-26 10:05 | 37.94705 | 27.38363 | 18801 ft | 398 kts | 359° |
| 2026-04-26 10:05 | 37.97475 | 27.38234 | 19255 ft | 399 kts | 359° |
| 2026-04-26 10:06 | 38.00260 | 27.38103 | 19647 ft | 402 kts | 359° |
| 2026-04-26 10:06 | 38.03065 | 27.37971 | 20055 ft | 404 kts | 359° |
| 2026-04-26 10:06 | 38.05882 | 27.37839 | 20466 ft | 406 kts | 359° |
| 2026-04-26 10:06 | 38.08717 | 27.37704 | 20864 ft | 408 kts | 359° |
| 2026-04-26 10:07 | 38.11563 | 27.37569 | 21245 ft | 410 kts | 359° |
| 2026-04-26 10:07 | 38.14427 | 27.37433 | 21635 ft | 412 kts | 359° |
| 2026-04-26 10:07 | 38.17303 | 27.37297 | 21997 ft | 414 kts | 359° |
| 2026-04-26 10:07 | 38.20187 | 27.37160 | 22337 ft | 416 kts | 359° |
| 2026-04-26 10:08 | 38.23089 | 27.37023 | 22699 ft | 418 kts | 359° |
| 2026-04-26 10:08 | 38.26002 | 27.36886 | 23048 ft | 420 kts | 359° |
| 2026-04-26 10:08 | 38.28930 | 27.36748 | 23358 ft | 422 kts | 359° |
| 2026-04-26 10:08 | 38.31873 | 27.36608 | 23708 ft | 424 kts | 359° |
| 2026-04-26 10:09 | 38.34828 | 27.36467 | 24050 ft | 426 kts | 359° |
| 2026-04-26 10:09 | 38.37797 | 27.36326 | 24390 ft | 428 kts | 359° |
| 2026-04-26 10:09 | 38.40776 | 27.36185 | 24756 ft | 429 kts | 359° |
| 2026-04-26 10:09 | 38.43759 | 27.36042 | 25127 ft | 430 kts | 360° |
| 2026-04-26 10:10 | 38.46754 | 27.35900 | 25461 ft | 432 kts | 359° |
| 2026-04-26 10:10 | 38.49758 | 27.35756 | 25780 ft | 433 kts | 360° |
| 2026-04-26 10:10 | 38.52779 | 27.35611 | 26138 ft | 435 kts | 360° |
| 2026-04-26 10:10 | 38.55806 | 27.35467 | 26514 ft | 436 kts | 359° |
| 2026-04-26 10:11 | 38.58849 | 27.35322 | 26882 ft | 438 kts | 359° |
| 2026-04-26 10:11 | 38.61899 | 27.35177 | 27267 ft | 439 kts | 360° |
| 2026-04-26 10:11 | 38.64960 | 27.35030 | 27664 ft | 441 kts | 360° |
| 2026-04-26 10:11 | 38.67998 | 27.34885 | 28063 ft | 442 kts | 360° |
| 2026-04-26 10:12 | 38.71077 | 27.34737 | 28485 ft | 444 kts | 360° |
| 2026-04-26 10:12 | 38.74168 | 27.34588 | 28889 ft | 445 kts | 360° |
| 2026-04-26 10:12 | 38.77269 | 27.34439 | 29270 ft | 447 kts | 360° |
| 2026-04-26 10:12 | 38.80399 | 27.34289 | 29666 ft | 449 kts | 360° |
| 2026-04-26 10:13 | 38.83537 | 27.34139 | 30083 ft | 451 kts | 360° |
| 2026-04-26 10:13 | 38.86677 | 27.33987 | 30498 ft | 453 kts | 360° |
| 2026-04-26 10:13 | 38.89843 | 27.33834 | 30851 ft | 456 kts | 359° |
| 2026-04-26 10:13 | 38.93019 | 27.33681 | 31229 ft | 458 kts | 359° |
| 2026-04-26 10:14 | 38.96218 | 27.33526 | 31564 ft | 461 kts | 359° |
| 2026-04-26 10:14 | 38.98812 | 27.33401 | 31829 ft | 462 kts | 359° |
| 2026-04-26 10:14 | 39.01741 | 27.33260 | 32131 ft | 464 kts | 359° |
| 2026-04-26 10:14 | 39.04982 | 27.33103 | 32433 ft | 466 kts | 359° |
| 2026-04-26 10:15 | 39.08229 | 27.32945 | 32726 ft | 468 kts | 359° |
| 2026-04-26 10:15 | 39.11495 | 27.32787 | 33026 ft | 470 kts | 359° |
| 2026-04-26 10:15 | 39.14776 | 27.32627 | 33320 ft | 472 kts | 359° |
| 2026-04-26 10:15 | 39.18058 | 27.32466 | 33705 ft | 471 kts | 359° |
| 2026-04-26 10:16 | 39.21336 | 27.32307 | 33973 ft | 472 kts | 359° |
| 2026-04-26 10:16 | 39.24616 | 27.32147 | 34008 ft | 471 kts | 359° |
| 2026-04-26 10:16 | 39.31162 | 27.31827 | 33999 ft | 471 kts | 359° |
| 2026-04-26 10:17 | 39.37718 | 27.31506 | 33998 ft | 471 kts | 359° |
| 2026-04-26 10:17 | 39.44257 | 27.31186 | 33999 ft | 470 kts | 359° |
| 2026-04-26 10:18 | 39.50738 | 27.30866 | 34000 ft | 467 kts | 359° |
| 2026-04-26 10:18 | 39.57221 | 27.30549 | 34000 ft | 466 kts | 359° |
| 2026-04-26 10:19 | 39.63707 | 27.30231 | 33998 ft | 466 kts | 359° |
| 2026-04-26 10:19 | 39.70197 | 27.29908 | 33999 ft | 466 kts | 359° |
| 2026-04-26 10:20 | 39.75586 | 27.29642 | 33996 ft | 466 kts | 359° |
| 2026-04-26 10:20 | 39.83113 | 27.29270 | 34006 ft | 466 kts | 359° |
| 2026-04-26 10:21 | 39.89590 | 27.28949 | 34008 ft | 466 kts | 359° |
| 2026-04-26 10:21 | 39.96071 | 27.28628 | 34005 ft | 466 kts | 359° |
| 2026-04-26 10:22 | 40.02422 | 27.28310 | 33752 ft | 449 kts | 358° |
| 2026-04-26 10:22 | 40.05518 | 27.28156 | 33317 ft | 443 kts | 358° |
| 2026-04-26 10:22 | 40.08581 | 27.28003 | 32817 ft | 439 kts | 358° |
| 2026-04-26 10:23 | 40.11487 | 27.27858 | 32310 ft | 435 kts | 358° |
| 2026-04-26 10:23 | 40.14510 | 27.27707 | 31791 ft | 432 kts | 358° |
| 2026-04-26 10:23 | 40.17499 | 27.27563 | 31281 ft | 428 kts | 359° |
| 2026-04-26 10:23 | 40.20460 | 27.27618 | 30783 ft | 424 kts | 3° |
| 2026-04-26 10:24 | 40.23394 | 27.27804 | 30281 ft | 420 kts | 3° |
| 2026-04-26 10:24 | 40.26304 | 27.28009 | 29773 ft | 417 kts | 3° |
| 2026-04-26 10:24 | 40.29189 | 27.28211 | 29244 ft | 414 kts | 3° |
| 2026-04-26 10:24 | 40.32064 | 27.28410 | 28663 ft | 412 kts | 3° |
| 2026-04-26 10:25 | 40.34924 | 27.28608 | 28102 ft | 411 kts | 3° |
| 2026-04-26 10:25 | 40.37735 | 27.28802 | 27568 ft | 408 kts | 3° |
| 2026-04-26 10:25 | 40.40630 | 27.29001 | 26621 ft | 415 kts | 3° |
| 2026-04-26 10:25 | 40.43546 | 27.28957 | 25590 ft | 424 kts | 351° |
| 2026-04-26 10:26 | 40.46348 | 27.27948 | 25105 ft | 420 kts | 339° |
| 2026-04-26 10:26 | 40.48988 | 27.26437 | 24790 ft | 410 kts | 338° |
| 2026-04-26 10:26 | 40.51730 | 27.25405 | 23913 ft | 413 kts | 350° |
| 2026-04-26 10:26 | 40.54647 | 27.25180 | 22932 ft | 430 kts | 3° |
| 2026-04-26 10:27 | 40.57628 | 27.25923 | 22296 ft | 444 kts | 17° |
| 2026-04-26 10:27 | 40.60430 | 27.27666 | 22046 ft | 448 kts | 32° |
| 2026-04-26 10:27 | 40.62863 | 27.30221 | 22017 ft | 448 kts | 41° |
| 2026-04-26 10:27 | 40.65171 | 27.32980 | 22016 ft | 447 kts | 40° |
| 2026-04-26 10:28 | 40.67572 | 27.35561 | 22017 ft | 446 kts | 36° |
| 2026-04-26 10:28 | 40.70060 | 27.38019 | 22017 ft | 445 kts | 36° |
| 2026-04-26 10:28 | 40.72548 | 27.40453 | 22016 ft | 446 kts | 36° |
| 2026-04-26 10:28 | 40.74914 | 27.43095 | 21996 ft | 446 kts | 41° |
| 2026-04-26 10:29 | 40.77173 | 27.45849 | 21420 ft | 440 kts | 42° |
| 2026-04-26 10:29 | 40.79391 | 27.48614 | 20626 ft | 438 kts | 43° |
| 2026-04-26 10:29 | 40.81589 | 27.51382 | 19896 ft | 435 kts | 43° |
| 2026-04-26 10:29 | 40.83765 | 27.54135 | 19166 ft | 431 kts | 43° |
| 2026-04-26 10:30 | 40.85915 | 27.56866 | 18430 ft | 427 kts | 43° |
| 2026-04-26 10:30 | 40.88046 | 27.59575 | 17685 ft | 424 kts | 43° |
| 2026-04-26 10:30 | 40.90162 | 27.62269 | 16951 ft | 420 kts | 43° |
| 2026-04-26 10:30 | 40.92256 | 27.64940 | 16233 ft | 417 kts | 43° |
| 2026-04-26 10:31 | 40.94336 | 27.67594 | 15538 ft | 413 kts | 43° |
| 2026-04-26 10:31 | 40.96392 | 27.70221 | 14823 ft | 409 kts | 43° |
| 2026-04-26 10:31 | 40.98428 | 27.72825 | 14078 ft | 405 kts | 43° |
| 2026-04-26 10:31 | 41.00449 | 27.75412 | 13346 ft | 402 kts | 42° |
| 2026-04-26 10:32 | 41.02452 | 27.77978 | 12604 ft | 400 kts | 43° |
| 2026-04-26 10:32 | 41.04442 | 27.80529 | 11868 ft | 396 kts | 42° |
| 2026-04-26 10:32 | 41.06404 | 27.83048 | 11254 ft | 390 kts | 42° |
| 2026-04-26 10:32 | 41.08309 | 27.85498 | 10984 ft | 374 kts | 43° |
| 2026-04-26 10:33 | 41.10139 | 27.87852 | 10753 ft | 359 kts | 42° |
| 2026-04-26 10:33 | 41.11891 | 27.90110 | 10530 ft | 345 kts | 42° |
| 2026-04-26 10:33 | 41.13578 | 27.92287 | 10330 ft | 331 kts | 42° |
| 2026-04-26 10:33 | 41.15174 | 27.94342 | 10140 ft | 318 kts | 42° |
| 2026-04-26 10:34 | 41.16732 | 27.96351 | 9980 ft | 306 kts | 42° |
| 2026-04-26 10:34 | 41.18238 | 27.98292 | 9663 ft | 300 kts | 42° |
| 2026-04-26 10:34 | 41.19726 | 28.00214 | 9269 ft | 297 kts | 42° |
| 2026-04-26 10:34 | 41.21202 | 28.02118 | 8859 ft | 294 kts | 42° |
| 2026-04-26 10:35 | 41.22668 | 28.04012 | 8432 ft | 293 kts | 43° |
| 2026-04-26 10:35 | 41.24127 | 28.05898 | 8023 ft | 292 kts | 42° |
| 2026-04-26 10:35 | 41.25576 | 28.07770 | 7645 ft | 289 kts | 42° |
| 2026-04-26 10:35 | 41.27008 | 28.09630 | 7262 ft | 286 kts | 43° |
| 2026-04-26 10:36 | 41.28426 | 28.11468 | 6848 ft | 285 kts | 42° |
| 2026-04-26 10:36 | 41.29846 | 28.13303 | 6437 ft | 284 kts | 42° |
| 2026-04-26 10:36 | 41.31214 | 28.15074 | 6054 ft | 282 kts | 42° |
| 2026-04-26 10:36 | 41.32596 | 28.16864 | 5652 ft | 279 kts | 42° |
| 2026-04-26 10:37 | 41.33986 | 28.18668 | 5285 ft | 279 kts | 43° |
| 2026-04-26 10:37 | 41.35379 | 28.20484 | 5036 ft | 289 kts | 43° |
| 2026-04-26 10:37 | 41.36868 | 28.22429 | 4989 ft | 307 kts | 43° |
| 2026-04-26 10:37 | 41.38404 | 28.24435 | 4997 ft | 311 kts | 43° |
| 2026-04-26 10:38 | 41.39946 | 28.26448 | 4988 ft | 310 kts | 43° |
| 2026-04-26 10:38 | 41.41492 | 28.28458 | 4989 ft | 310 kts | 43° |
| 2026-04-26 10:38 | 41.43032 | 28.30468 | 4993 ft | 310 kts | 43° |
| 2026-04-26 10:38 | 41.44572 | 28.32475 | 4996 ft | 309 kts | 43° |
| 2026-04-26 10:39 | 41.46108 | 28.34484 | 4990 ft | 310 kts | 43° |
| 2026-04-26 10:39 | 41.47647 | 28.36495 | 4985 ft | 310 kts | 43° |
| 2026-04-26 10:39 | 41.49185 | 28.38508 | 4990 ft | 310 kts | 43° |
| 2026-04-26 10:39 | 41.50724 | 28.40524 | 4996 ft | 310 kts | 43° |
| 2026-04-26 10:40 | 41.52260 | 28.42540 | 4987 ft | 310 kts | 43° |
| 2026-04-26 10:40 | 41.53802 | 28.44556 | 4987 ft | 310 kts | 43° |
| 2026-04-26 10:40 | 41.55325 | 28.46559 | 4993 ft | 300 kts | 43° |
| 2026-04-26 10:40 | 41.56532 | 28.48693 | 5005 ft | 280 kts | 64° |
| 2026-04-26 10:41 | 41.56932 | 28.51139 | 5003 ft | 262 kts | 89° |
| 2026-04-26 10:41 | 41.56844 | 28.53499 | 4994 ft | 250 kts | 95° |
| 2026-04-26 10:41 | 41.56680 | 28.55777 | 4995 ft | 249 kts | 96° |
| 2026-04-26 10:41 | 41.56510 | 28.58022 | 4912 ft | 244 kts | 96° |
| 2026-04-26 10:42 | 41.56338 | 28.60271 | 4547 ft | 244 kts | 96° |
| 2026-04-26 10:42 | 41.56225 | 28.61774 | 4286 ft | 246 kts | 96° |
| 2026-04-26 10:42 | 41.56003 | 28.64808 | 3836 ft | 244 kts | 96° |
| 2026-04-26 10:42 | 41.55897 | 28.66302 | 3636 ft | 243 kts | 96° |
| 2026-04-26 10:43 | 41.55742 | 28.68536 | 3343 ft | 240 kts | 96° |
| 2026-04-26 10:43 | 41.55414 | 28.70708 | 3042 ft | 238 kts | 116° |
| 2026-04-26 10:43 | 41.54377 | 28.72312 | 2997 ft | 222 kts | 152° |
| 2026-04-26 10:43 | 41.52981 | 28.72638 | 2994 ft | 195 kts | 190° |
| 2026-04-26 10:44 | 41.51709 | 28.72387 | 2994 ft | 174 kts | 189° |
| 2026-04-26 10:44 | 41.50566 | 28.72284 | 2995 ft | 157 kts | 183° |
| 2026-04-26 10:44 | 41.49487 | 28.72290 | 2995 ft | 154 kts | 181° |
| 2026-04-26 10:44 | 41.48436 | 28.72320 | 3022 ft | 152 kts | 181° |
| 2026-04-26 10:45 | 41.47384 | 28.72347 | 3004 ft | 152 kts | 181° |
| 2026-04-26 10:45 | 41.46323 | 28.72366 | 2996 ft | 153 kts | 181° |
| 2026-04-26 10:45 | 41.45256 | 28.72384 | 2983 ft | 154 kts | 182° |
| 2026-04-26 10:45 | 41.44182 | 28.72401 | 2976 ft | 154 kts | 182° |
| 2026-04-26 10:46 | 41.43113 | 28.72419 | 2827 ft | 153 kts | 181° |
| 2026-04-26 10:46 | 41.42054 | 28.72442 | 2617 ft | 152 kts | 181° |
| 2026-04-26 10:46 | 41.40996 | 28.72464 | 2410 ft | 151 kts | 181° |
| 2026-04-26 10:46 | 41.39952 | 28.72487 | 2210 ft | 149 kts | 181° |
| 2026-04-26 10:47 | 41.38920 | 28.72509 | 2007 ft | 148 kts | 182° |
| 2026-04-26 10:47 | 41.37891 | 28.72529 | 1805 ft | 147 kts | 181° |
| 2026-04-26 10:47 | 41.36866 | 28.72554 | 1621 ft | 147 kts | 181° |
| 2026-04-26 10:47 | 41.35846 | 28.72591 | 1399 ft | 146 kts | 181° |
| 2026-04-26 10:48 | 41.34834 | 28.72631 | 1231 ft | 145 kts | 180° |
| 2026-04-26 10:48 | 41.33836 | 28.72651 | 1043 ft | 144 kts | 182° |
| 2026-04-26 10:48 | 41.32842 | 28.72656 | 815 ft | 142 kts | 182° |
| 2026-04-26 10:48 | 41.31845 | 28.72670 | 640 ft | 143 kts | 181° |
| 2026-04-26 10:49 | 41.30848 | 28.72703 | 460 ft | 143 kts | 180° |
| 2026-04-26 10:49 | 41.29853 | 28.72710 | 238 ft | 143 kts | 181° |
| 2026-04-26 10:49 | 41.28924 | 28.72723 | 182 ft | 120 kts | 181° |
| 2026-04-26 10:49 | 41.28347 | 28.72741 | 182 ft | 97 kts | 176° |
| 2026-04-26 10:50 | 41.27811 | 28.72757 | 194 ft | 52 kts | 181° |
| 2026-04-26 10:50 | 41.27576 | 28.72793 | 182 ft | 10 kts | 163° |
| 2026-04-26 10:50 | 41.27510 | 28.72834 | 181 ft | 8 kts | 152° |
| 2026-04-26 10:50 | 41.27460 | 28.72871 | 181 ft | 9 kts | 149° |
| 2026-04-26 10:51 | 41.27391 | 28.72927 | 182 ft | 15 kts | 149° |
| 2026-04-26 10:51 | 41.27165 | 28.72988 | 182 ft | 18 kts | 178° |
| 2026-04-26 10:51 | 41.27032 | 28.72991 | 182 ft | 20 kts | 180° |
| 2026-04-26 10:52 | 41.26958 | 28.73037 | 182 ft | 9 kts | 117° |
| 2026-04-26 10:52 | 41.26946 | 28.73120 | 182 ft | 10 kts | 91° |
| 2026-04-26 10:52 | 41.26944 | 28.73226 | 182 ft | 12 kts | 91° |
| 2026-04-26 10:52 | 41.26944 | 28.73263 | 182 ft | 0 kts | 90° |
| 2026-04-26 10:53 | 41.26944 | 28.73301 | 182 ft | 7 kts | 90° |
| 2026-04-26 10:53 | 41.26947 | 28.73381 | 183 ft | 10 kts | 89° |
| 2026-04-26 10:53 | 41.26949 | 28.73489 | 183 ft | 13 kts | 90° |
| 2026-04-26 10:54 | 41.26950 | 28.73771 | 183 ft | 16 kts | 87° |
| 2026-04-26 10:54 | 41.26912 | 28.73866 | 183 ft | 11 kts | 155° |
| 2026-04-26 10:54 | 41.26830 | 28.73874 | 183 ft | 12 kts | 188° |
| 2026-04-26 10:54 | 41.26783 | 28.73812 | 183 ft | 9 kts | 267° |
| 2026-04-26 10:55 | 41.26780 | 28.73753 | 183 ft | 0 kts | 266° |